Impacts METAR Board
IDs:

KMOB - Mobile Rgnl, AL, US

Updated at: 0200 UTC 23 Oct 2018
Potential Impact None Slight Moderate High
Time 22/14Z 22/15Z 22/16Z 22/17Z 22/18Z 22/19Z 22/20Z 22/21Z 22/22Z 22/23Z 23/00Z 23/01Z 23/02Z
Temp57 63 68 74 73 74 75 75 73 72 70 69 69
Dewpt46 50 53 57 58 59 60 60 60 61 61 61 61
Altim30.23 30.23 30.22 30.20 30.18 30.16 30.14 30.13 30.14 30.14 30.15 30.15 30.17
VIS10 10 10 10 10 7 10 10 10 10 10 10 10
CIG-- -- -- 250 100 28 150 150 28 200 35 200 --
CoverSCTSCTSCTBKNBKNBKNBKNBKNBKNOVCOVCOVCSCT
FltCatVFRVFRVFRVFRVFRMVFRVFRVFRMVFRVFRVFRVFRVFR
WX--------------------------
WDir605080120907090807080605080
WSpd8 7 8 7 6 4 6 7 6 5 5 4 4
WGst-- -- -- -- -- -- -- -- -- -- -- -- --
Raw hourly METARs
KMOB 221356Z 06008KT 10SM FEW050 SCT250 14/08 A3023 RMK AO2 SLP234 T01390078
KMOB 221456Z 05007KT 10SM FEW090 SCT250 17/10 A3023 RMK AO2 SLP235 T01720100 51013
KMOB 221556Z 08008KT 10SM FEW090 SCT250 20/12 A3022 RMK AO2 SLP233 T02000117
KMOB 221656Z 12007KT 10SM FEW015 SCT100 BKN250 23/14 A3020 RMK AO2 SLP225 T02330139
KMOB 221756Z 09006KT 10SM FEW020 BKN100 BKN220 23/14 A3018 RMK AO2 SLP217 T02280144 10239 20089 58018
KMOB 221856Z 07004KT 7SM BKN028 BKN120 BKN220 23/15 A3016 RMK AO2 SLP210 T02330150
KMOB 222003Z 09006KT 10SM FEW030 BKN150 BKN200 24/16 A3014 RMK AO2 T02390156
KMOB 222056Z 08007KT 10SM FEW030 BKN150 BKN200 24/16 A3013 RMK AO2 SLP202 T02390156 56015
KMOB 222203Z 07006KT 10SM BKN028 23/16 A3014 RMK AO2 T02280156
KMOB 222256Z 08005KT 10SM SCT028 SCT120 OVC200 22/16 A3014 RMK AO2 SLP205 T02220161
KMOB 222356Z 06005KT 10SM SCT028 BKN035 OVC200 21/16 A3015 RMK AO2 SLP207 T02110161 10244 20211 51005
KMOB 230056Z 05004KT 10SM FEW120 OVC200 21/16 A3015 RMK AO2 SLP210 T02060161
KMOB 230156Z 08004KT 10SM SCT027 SCT041 21/16 A3017 RMK AO2 SLP214 T02060161



Page loaded:  02:40 UTC  |   07:40 PM Pacific  |   08:40 PM Mountain  |   09:40 PM Central  |   10:40 PM Eastern

 

ADVISORIES

FORECASTS

FORECASTS

OBSERVATIONS

USER TOOLS

ABOUT US